Time;durP1;ratioP1;P1;durP2;ratioP2;P2;SDS_P1;SDS_P2;PMS_P1;PMS_P2;Temp;Humidity;BMP_temperature;BMP_pressure;BME280_temperature;BME280_humidity;BME280_pressure;Samples;Min_cycle;Max_cycle;Signal;HPM_P1;HPM_P2
2021/08/10 00:02:11;;;;;;;;;;;21.80;62.60;;;;;;5042639;28;19920;-58
2021/08/10 00:04:36;;;;;;;;;;;21.80;62.60;;;;;;5039088;28;20014;-57
2021/08/10 00:07:02;;;;;;;;;;;21.80;62.60;;;;;;5042611;28;19916;-58
2021/08/10 00:09:27;;;;;;;;;;;21.80;62.60;;;;;;5036019;28;19921;-61
2021/08/10 00:11:55;;;;;;;;;;;21.80;62.50;;;;;;5042081;28;19916;-60
2021/08/10 00:14:21;;;;;;;;;;;21.80;62.60;;;;;;5040183;28;19913;-54
2021/08/10 00:16:46;;;;;;;;;;;21.80;62.60;;;;;;5037853;28;20383;-58
2021/08/10 00:19:12;;;;;;;;;;;21.80;62.60;;;;;;5036605;28;19975;-61
2021/08/10 00:21:37;;;;;;;;;;;21.90;62.70;;;;;;5019468;28;19944;-60
2021/08/10 00:24:04;;;;;;;;;;;21.80;62.60;;;;;;5019742;28;19913;-61
2021/08/10 00:26:29;;;;;;;;;;;21.80;62.50;;;;;;5019609;28;19917;-61
2021/08/10 00:28:55;;;;;;;;;;;21.80;62.50;;;;;;5018964;28;20020;-60
2021/08/10 00:31:20;;;;;;;;;;;21.80;62.60;;;;;;5021312;28;19967;-61
2021/08/10 00:33:46;;;;;;;;;;;21.80;62.60;;;;;;5019856;28;20348;-59
2021/08/10 00:36:12;;;;;;;;;;;21.80;62.50;;;;;;5020614;28;19917;-61
2021/08/10 00:38:38;;;;;;;;;;;21.80;62.60;;;;;;5059695;22;20382;-65
2021/08/10 00:41:03;;;;;;;;;;;21.80;62.60;;;;;;5049452;28;19912;-61
2021/08/10 00:43:33;;;;;;;;;;;21.80;62.60;;;;;;5040776;28;19991;-59
2021/08/10 00:45:59;;;;;;;;;;;21.80;62.60;;;;;;5040017;28;19913;-62
2021/08/10 00:48:24;;;;;;;;;;;21.90;62.60;;;;;;5040375;28;20021;-58
2021/08/10 00:50:50;;;;;;;;;;;21.80;62.50;;;;;;5041545;28;20388;-60
2021/08/10 00:53:15;;;;;;;;;;;21.80;62.50;;;;;;5041808;28;19917;-62
2021/08/10 00:55:40;;;;;;;;;;;21.80;62.50;;;;;;5041789;28;19924;-59
2021/08/10 00:58:06;;;;;;;;;;;21.80;62.50;;;;;;5041636;28;20689;-58
2021/08/10 01:00:31;;;;;;;;;;;21.80;62.60;;;;;;5040654;28;19913;-61
2021/08/10 01:02:57;;;;;;;;;;;21.80;62.50;;;;;;5041869;28;19924;-60
2021/08/10 01:05:23;;;;;;;;;;;21.80;62.50;;;;;;5041672;28;20613;-59
2021/08/10 01:07:51;;;;;;;;;;;21.80;62.60;;;;;;5041915;28;19936;-58
2021/08/10 01:10:30;;;;;;;;;;;21.80;63.10;;;;;;5039581;28;21780;-59
2021/08/10 01:12:59;;;;;;;;;;;21.80;62.50;;;;;;5040358;28;19970;-62
2021/08/10 01:15:26;;;;;;;;;;;21.80;62.60;;;;;;5040899;28;19927;-60
2021/08/10 01:17:54;;;;;;;;;;;21.90;62.60;;;;;;5040704;28;19955;-62
2021/08/10 01:20:37;;;;;;;;;;;21.80;62.50;;;;;;5042642;28;19923;-62
2021/08/10 01:23:03;;;;;;;;;;;21.80;62.40;;;;;;5040428;28;19917;-60
2021/08/10 01:25:47;;;;;;;;;;;21.80;62.50;;;;;;5041257;28;19913;-59
2021/08/10 01:28:13;;;;;;;;;;;21.80;62.50;;;;;;5042935;28;19949;-61
2021/08/10 01:30:44;;;;;;;;;;;21.80;62.40;;;;;;5041079;28;20007;-60
2021/08/10 01:33:09;;;;;;;;;;;21.90;62.40;;;;;;5041964;28;19948;-58
2021/08/10 01:35:35;;;;;;;;;;;21.80;62.40;;;;;;5040708;28;19928;-57
2021/08/10 01:38:00;;;;;;;;;;;21.80;62.30;;;;;;5039909;28;20018;-59
2021/08/10 01:40:26;;;;;;;;;;;21.80;62.30;;;;;;5040208;28;20297;-61
2021/08/10 01:42:52;;;;;;;;;;;21.90;62.30;;;;;;5040556;28;20037;-59
2021/08/10 01:45:18;;;;;;;;;;;21.80;62.30;;;;;;5042185;28;20175;-59
2021/08/10 01:47:43;;;;;;;;;;;21.80;62.30;;;;;;5041444;28;20318;-59
2021/08/10 01:50:09;;;;;;;;;;;21.80;62.30;;;;;;5039886;28;19917;-61
2021/08/10 01:52:34;;;;;;;;;;;21.80;62.30;;;;;;5041180;28;19913;-60
2021/08/10 01:55:00;;;;;;;;;;;21.80;62.30;;;;;;5040100;28;19977;-60
2021/08/10 01:57:25;;;;;;;;;;;21.80;62.20;;;;;;5039842;28;19956;-62
2021/08/10 01:59:51;;;;;;;;;;;21.80;62.20;;;;;;5041476;28;19921;-61
2021/08/10 02:02:17;;;;;;;;;;;21.80;62.20;;;;;;5060019;28;19927;-61
2021/08/10 02:04:43;;;;;;;;;;;21.80;62.20;;;;;;5060021;28;19916;-58
2021/08/10 02:07:08;;;;;;;;;;;21.80;62.20;;;;;;5061796;28;19916;-56
2021/08/10 02:09:34;;;;;;;;;;;21.80;62.10;;;;;;5059808;28;19916;-58
2021/08/10 02:11:59;;;;;;;;;;;21.80;62.20;;;;;;5061128;28;19962;-60
2021/08/10 02:14:25;;;;;;;;;;;21.80;62.20;;;;;;5061357;28;19922;-60
2021/08/10 02:16:52;;;;;;;;;;;21.80;62.10;;;;;;5060383;28;20664;-59
2021/08/10 02:19:17;;;;;;;;;;;21.80;62.10;;;;;;5058915;28;20579;-59
2021/08/10 02:21:46;;;;;;;;;;;21.80;62.10;;;;;;5059026;28;19917;-58
2021/08/10 02:24:32;;;;;;;;;;;21.80;62.80;;;;;;5061044;28;19921;-61
2021/08/10 02:27:04;;;;;;;;;;;21.80;62.20;;;;;;5058783;28;21075;-61
2021/08/10 02:29:39;;;;;;;;;;;21.80;62.10;;;;;;5058254;28;19913;-61
2021/08/10 02:32:05;;;;;;;;;;;21.80;62.10;;;;;;5060739;28;20011;-61
2021/08/10 02:34:30;;;;;;;;;;;21.80;62.10;;;;;;5058732;28;20003;-58
2021/08/10 02:36:56;;;;;;;;;;;21.80;62.00;;;;;;5058864;28;19913;-59
2021/08/10 02:39:22;;;;;;;;;;;21.80;62.00;;;;;;5058972;28;20381;-62
2021/08/10 02:41:47;;;;;;;;;;;21.80;62.00;;;;;;5058715;28;19912;-60
2021/08/10 02:44:13;;;;;;;;;;;21.80;62.70;;;;;;5060024;28;20468;-61
2021/08/10 02:46:38;;;;;;;;;;;21.80;62.00;;;;;;5058657;28;19920;-56
2021/08/10 02:49:06;;;;;;;;;;;21.80;61.90;;;;;;5060132;28;19924;-61
2021/08/10 02:51:32;;;;;;;;;;;21.80;61.90;;;;;;5059841;28;19920;-60
2021/08/10 02:53:57;;;;;;;;;;;21.80;61.90;;;;;;5059957;28;19944;-58
2021/08/10 02:56:23;;;;;;;;;;;21.80;61.90;;;;;;5059559;28;19921;-58
2021/08/10 02:58:59;;;;;;;;;;;21.80;61.90;;;;;;5059939;28;19916;-57
2021/08/10 03:01:32;;;;;;;;;;;21.80;61.90;;;;;;5050854;28;19917;-61
2021/08/10 03:03:58;;;;;;;;;;;21.80;61.80;;;;;;5039741;28;20356;-58
2021/08/10 03:06:24;;;;;;;;;;;21.80;61.90;;;;;;5037743;28;19924;-55
2021/08/10 03:08:51;;;;;;;;;;;21.70;61.90;;;;;;5058560;28;20275;-58
2021/08/10 03:11:16;;;;;;;;;;;21.80;61.80;;;;;;5057463;28;20325;-61
2021/08/10 03:13:42;;;;;;;;;;;21.80;61.90;;;;;;5058182;28;19921;-58
2021/08/10 03:16:08;;;;;;;;;;;21.80;61.90;;;;;;5058106;28;20308;-57
2021/08/10 03:18:35;;;;;;;;;;;21.80;61.80;;;;;;5058969;28;19920;-57
2021/08/10 03:21:00;;;;;;;;;;;21.80;61.70;;;;;;5057702;28;19913;-60
2021/08/10 03:23:26;;;;;;;;;;;21.80;61.80;;;;;;5041551;28;20289;-60
2021/08/10 03:25:52;;;;;;;;;;;21.70;61.70;;;;;;5058289;28;19917;-57
2021/08/10 03:28:17;;;;;;;;;;;21.80;61.70;;;;;;5058190;28;19917;-60
2021/08/10 03:30:43;;;;;;;;;;;21.80;61.70;;;;;;5059894;28;19975;-60
2021/08/10 03:33:08;;;;;;;;;;;21.70;61.70;;;;;;5058248;28;20338;-62
2021/08/10 03:35:33;;;;;;;;;;;21.70;61.60;;;;;;5057503;28;20427;-60
2021/08/10 03:37:59;;;;;;;;;;;21.70;61.70;;;;;;5058877;28;19920;-61
2021/08/10 03:40:24;;;;;;;;;;;21.80;61.60;;;;;;5057336;28;19916;-62
2021/08/10 03:42:50;;;;;;;;;;;21.70;61.70;;;;;;5057167;28;19929;-60
2021/08/10 03:45:15;;;;;;;;;;;21.70;61.60;;;;;;5048833;28;20421;-58
2021/08/10 03:47:41;;;;;;;;;;;21.70;61.50;;;;;;5030399;28;19943;-58
2021/08/10 03:50:07;;;;;;;;;;;21.70;61.60;;;;;;5055790;28;19913;-61
2021/08/10 03:52:32;;;;;;;;;;;21.70;61.60;;;;;;5057382;28;19928;-62
2021/08/10 03:54:58;;;;;;;;;;;21.70;61.60;;;;;;5058180;28;19932;-61
2021/08/10 03:57:23;;;;;;;;;;;21.70;61.60;;;;;;5062643;28;19917;-58
2021/08/10 03:59:53;;;;;;;;;;;21.70;61.60;;;;;;5063253;28;19921;-61
2021/08/10 04:02:18;;;;;;;;;;;21.70;61.60;;;;;;5060930;28;20421;-57
2021/08/10 04:04:44;;;;;;;;;;;21.70;61.60;;;;;;5062302;28;20319;-58
2021/08/10 04:07:09;;;;;;;;;;;21.70;62.20;;;;;;5062391;28;20268;-59
2021/08/10 04:09:36;;;;;;;;;;;21.70;61.60;;;;;;5061506;28;19913;-57
2021/08/10 04:12:08;;;;;;;;;;;21.70;61.60;;;;;;5060817;28;19939;-58
2021/08/10 04:14:34;;;;;;;;;;;21.70;61.60;;;;;;5061518;28;20352;-59
2021/08/10 04:17:00;;;;;;;;;;;21.70;61.70;;;;;;5062039;28;20345;-60
2021/08/10 04:19:28;;;;;;;;;;;21.70;61.70;;;;;;5060245;28;20692;-59
2021/08/10 04:21:53;;;;;;;;;;;21.70;61.60;;;;;;5061623;28;19920;-61
2021/08/10 04:24:19;;;;;;;;;;;21.70;61.60;;;;;;5062537;28;20440;-60
2021/08/10 04:26:44;;;;;;;;;;;21.70;61.60;;;;;;5061609;28;19924;-60
2021/08/10 04:29:10;;;;;;;;;;;21.70;62.30;;;;;;5061535;28;19916;-58
2021/08/10 04:31:35;;;;;;;;;;;21.70;61.60;;;;;;5062535;28;20133;-60
2021/08/10 04:34:00;;;;;;;;;;;21.70;61.60;;;;;;5062175;28;19950;-59
2021/08/10 04:36:26;;;;;;;;;;;21.70;61.60;;;;;;5062141;28;19966;-58
2021/08/10 04:38:51;;;;;;;;;;;21.70;61.70;;;;;;5062455;28;19928;-60
2021/08/10 04:41:17;;;;;;;;;;;21.70;61.80;;;;;;5062265;28;20385;-60
2021/08/10 04:43:42;;;;;;;;;;;21.70;61.70;;;;;;5061684;28;20005;-60
2021/08/10 04:46:08;;;;;;;;;;;21.70;61.70;;;;;;5062434;28;19920;-59
2021/08/10 04:48:33;;;;;;;;;;;21.70;61.80;;;;;;5061754;28;19913;-61
2021/08/10 04:50:58;;;;;;;;;;;21.70;61.80;;;;;;5062149;28;20377;-57
2021/08/10 04:53:24;;;;;;;;;;;21.70;61.80;;;;;;5062524;28;19912;-60
2021/08/10 04:55:50;;;;;;;;;;;21.60;61.70;;;;;;5062205;28;19917;-62
2021/08/10 04:58:15;;;;;;;;;;;21.70;61.80;;;;;;5061516;28;19946;-60
2021/08/10 05:00:40;;;;;;;;;;;21.70;61.90;;;;;;5062517;28;20292;-61
2021/08/10 05:03:06;;;;;;;;;;;21.70;61.80;;;;;;5062215;28;19917;-60
2021/08/10 05:05:31;;;;;;;;;;;21.70;61.90;;;;;;5061504;28;19913;-59
2021/08/10 05:07:57;;;;;;;;;;;21.70;62.00;;;;;;5061523;28;20789;-58
2021/08/10 05:10:22;;;;;;;;;;;21.70;61.90;;;;;;5062313;28;19966;-59
2021/08/10 05:12:48;;;;;;;;;;;21.70;61.90;;;;;;5061215;28;19917;-57
2021/08/10 05:15:13;;;;;;;;;;;21.60;61.90;;;;;;5061556;28;20011;-61
2021/08/10 05:17:38;;;;;;;;;;;21.60;61.90;;;;;;5061254;28;19916;-56
2021/08/10 05:20:04;;;;;;;;;;;21.70;61.90;;;;;;5062044;28;19924;-60
2021/08/10 05:22:30;;;;;;;;;;;21.60;62.00;;;;;;5060981;28;19939;-57
2021/08/10 05:24:55;;;;;;;;;;;21.70;62.20;;;;;;5061313;28;20542;-61
2021/08/10 05:27:21;;;;;;;;;;;21.60;62.00;;;;;;5061487;28;19912;-60
2021/08/10 05:29:46;;;;;;;;;;;21.60;62.10;;;;;;5060921;28;19924;-57
2021/08/10 05:32:11;;;;;;;;;;;21.60;62.10;;;;;;5060593;28;19920;-57
2021/08/10 05:34:38;;;;;;;;;;;21.60;62.50;;;;;;5060356;28;20374;-58
2021/08/10 05:37:04;;;;;;;;;;;21.60;62.10;;;;;;5060990;28;19917;-60
2021/08/10 05:39:29;;;;;;;;;;;21.60;62.00;;;;;;5060717;28;19920;-61
2021/08/10 05:41:55;;;;;;;;;;;21.70;61.90;;;;;;5060486;28;19959;-61
2021/08/10 05:44:20;;;;;;;;;;;21.60;61.80;;;;;;5060699;28;19912;-58
2021/08/10 05:46:46;;;;;;;;;;;21.60;61.90;;;;;;5060392;28;20298;-59
2021/08/10 05:49:11;;;;;;;;;;;21.60;61.80;;;;;;5059788;28;20273;-60
2021/08/10 05:51:37;;;;;;;;;;;21.70;61.90;;;;;;5059960;28;19931;-61
2021/08/10 05:54:02;;;;;;;;;;;21.60;61.90;;;;;;5060219;28;20269;-61
2021/08/10 05:56:28;;;;;;;;;;;21.60;62.00;;;;;;5060332;28;19944;-61
2021/08/10 05:58:53;;;;;;;;;;;21.60;62.00;;;;;;5057832;28;19924;-61
2021/08/10 06:01:19;;;;;;;;;;;21.60;62.00;;;;;;5059524;28;21030;-61
2021/08/10 06:03:44;;;;;;;;;;;21.60;62.00;;;;;;5060489;28;19912;-61
2021/08/10 06:06:10;;;;;;;;;;;21.60;62.00;;;;;;5058755;28;20231;-61
2021/08/10 06:08:35;;;;;;;;;;;21.70;62.10;;;;;;5059348;28;19970;-58
2021/08/10 06:11:01;;;;;;;;;;;21.60;62.10;;;;;;5059383;28;19912;-59
2021/08/10 06:13:26;;;;;;;;;;;21.60;62.20;;;;;;5059497;28;19924;-60
2021/08/10 06:15:52;;;;;;;;;;;21.60;62.20;;;;;;5060310;28;19922;-61
2021/08/10 06:18:17;;;;;;;;;;;21.60;62.30;;;;;;5058792;28;20397;-57
2021/08/10 06:20:43;;;;;;;;;;;21.60;62.30;;;;;;5059287;28;19916;-56
2021/08/10 06:23:08;;;;;;;;;;;21.60;62.30;;;;;;5059338;28;19973;-60
2021/08/10 06:25:34;;;;;;;;;;;21.60;62.40;;;;;;5059708;28;20392;-61
2021/08/10 06:27:59;;;;;;;;;;;21.60;62.50;;;;;;5059909;28;20223;-58
2021/08/10 06:30:24;;;;;;;;;;;21.60;62.50;;;;;;5058894;28;19923;-60
2021/08/10 06:32:50;;;;;;;;;;;21.60;62.50;;;;;;5061032;28;20422;-61
2021/08/10 06:35:15;;;;;;;;;;;21.60;62.60;;;;;;5063324;28;19916;-60
2021/08/10 06:37:41;;;;;;;;;;;21.60;62.70;;;;;;5060219;28;20608;-60
2021/08/10 06:40:06;;;;;;;;;;;21.60;62.70;;;;;;5047463;22;19968;-60
2021/08/10 06:42:32;;;;;;;;;;;21.60;62.80;;;;;;5035102;28;20428;-60
2021/08/10 06:44:58;;;;;;;;;;;21.60;62.90;;;;;;5036313;28;19913;-60
2021/08/10 06:47:24;;;;;;;;;;;21.60;62.90;;;;;;5018567;28;20382;-60
2021/08/10 06:49:49;;;;;;;;;;;21.60;62.90;;;;;;5034903;28;19913;-59
2021/08/10 06:52:15;;;;;;;;;;;21.60;62.80;;;;;;5036148;28;19917;-60
2021/08/10 06:54:40;;;;;;;;;;;21.60;62.80;;;;;;5019562;28;19913;-60
2021/08/10 06:57:07;;;;;;;;;;;21.60;62.70;;;;;;5037505;28;19967;-59
2021/08/10 06:59:33;;;;;;;;;;;21.60;62.80;;;;;;5037516;28;19939;-60
2021/08/10 07:01:58;;;;;;;;;;;21.60;62.80;;;;;;5037913;28;19917;-59
2021/08/10 07:04:24;;;;;;;;;;;21.60;62.80;;;;;;5020650;28;19917;-58
2021/08/10 07:06:49;;;;;;;;;;;21.60;62.70;;;;;;5038039;28;20265;-59
2021/08/10 07:09:15;;;;;;;;;;;21.60;62.80;;;;;;5037352;28;20022;-58
2021/08/10 07:11:42;;;;;;;;;;;21.50;62.80;;;;;;5037628;28;20250;-60
2021/08/10 07:14:11;;;;;;;;;;;21.60;62.90;;;;;;5038282;28;20051;-58
2021/08/10 07:16:37;;;;;;;;;;;21.60;62.90;;;;;;5036561;28;20049;-60
2021/08/10 07:19:03;;;;;;;;;;;21.60;62.90;;;;;;5035544;28;19986;-60
2021/08/10 07:21:28;;;;;;;;;;;21.60;63.00;;;;;;5018917;28;19982;-58
2021/08/10 07:23:54;;;;;;;;;;;21.60;62.90;;;;;;5038332;28;19921;-58
2021/08/10 07:26:19;;;;;;;;;;;21.60;62.90;;;;;;5020266;28;19917;-58
2021/08/10 07:28:45;;;;;;;;;;;21.50;63.00;;;;;;5038184;28;19960;-60
2021/08/10 07:31:10;;;;;;;;;;;21.60;63.10;;;;;;5041963;28;19913;-60
2021/08/10 07:33:35;;;;;;;;;;;21.50;63.10;;;;;;5041832;28;20727;-59
2021/08/10 07:36:02;;;;;;;;;;;21.60;63.20;;;;;;5041734;28;19917;-60
2021/08/10 07:38:27;;;;;;;;;;;21.50;63.10;;;;;;5041068;28;20095;-57
2021/08/10 07:40:53;;;;;;;;;;;21.60;63.20;;;;;;5042550;28;20015;-60
2021/08/10 07:43:18;;;;;;;;;;;21.60;63.30;;;;;;5041736;28;20613;-60
2021/08/10 07:45:44;;;;;;;;;;;21.60;63.30;;;;;;5040963;28;19924;-60
2021/08/10 07:48:09;;;;;;;;;;;21.50;63.30;;;;;;5039325;28;19954;-59
2021/08/10 07:50:35;;;;;;;;;;;21.60;63.30;;;;;;5040366;28;19944;-60
2021/08/10 07:53:00;;;;;;;;;;;21.50;63.20;;;;;;5039867;28;19916;-59
2021/08/10 07:55:25;;;;;;;;;;;21.60;63.20;;;;;;5040239;28;20348;-60
2021/08/10 07:57:51;;;;;;;;;;;21.60;63.10;;;;;;5039122;28;20429;-58
2021/08/10 08:00:17;;;;;;;;;;;21.60;63.10;;;;;;5039905;28;19913;-59
2021/08/10 08:02:42;;;;;;;;;;;21.60;63.10;;;;;;5039481;28;19916;-59
2021/08/10 08:05:08;;;;;;;;;;;21.50;63.10;;;;;;5039549;28;19952;-60
2021/08/10 08:07:33;;;;;;;;;;;21.60;63.10;;;;;;5040107;28;19924;-59
2021/08/10 08:09:59;;;;;;;;;;;21.60;63.10;;;;;;5039257;28;19924;-59
2021/08/10 08:12:24;;;;;;;;;;;21.60;63.10;;;;;;5040448;28;19913;-59
2021/08/10 08:14:50;;;;;;;;;;;21.50;63.10;;;;;;5039630;28;20297;-59
2021/08/10 08:17:15;;;;;;;;;;;21.50;63.00;;;;;;5039996;28;19928;-59
2021/08/10 08:19:40;;;;;;;;;;;21.50;63.00;;;;;;5039753;28;19917;-59
2021/08/10 08:22:07;;;;;;;;;;;21.50;63.10;;;;;;5021849;28;19917;-60
2021/08/10 08:24:32;;;;;;;;;;;21.60;63.10;;;;;;5039533;28;20016;-59
2021/08/10 08:26:57;;;;;;;;;;;21.50;63.10;;;;;;5039117;28;19917;-59
2021/08/10 08:29:23;;;;;;;;;;;21.50;63.10;;;;;;5034665;28;19916;-59
2021/08/10 08:31:48;;;;;;;;;;;21.60;63.10;;;;;;5039224;28;19929;-59
2021/08/10 08:34:14;;;;;;;;;;;21.60;63.40;;;;;;5019422;28;20027;-59
2021/08/10 08:36:39;;;;;;;;;;;21.50;63.50;;;;;;5038362;28;19921;-59
2021/08/10 08:39:05;;;;;;;;;;;21.60;63.80;;;;;;5037906;28;19971;-59
2021/08/10 08:41:30;;;;;;;;;;;21.50;63.80;;;;;;5038775;28;19923;-59
2021/08/10 08:43:56;;;;;;;;;;;21.50;64.20;;;;;;5039597;28;20386;-59
2021/08/10 08:46:24;;;;;;;;;;;21.50;63.90;;;;;;5040937;28;19921;-60
2021/08/10 08:48:50;;;;;;;;;;;21.50;63.90;;;;;;5038968;28;19963;-59
2021/08/10 08:51:23;;;;;;;;;;;21.50;63.90;;;;;;5039389;28;20013;-58
2021/08/10 08:53:49;;;;;;;;;;;21.50;63.90;;;;;;5040823;28;19920;-59
2021/08/10 08:56:17;;;;;;;;;;;21.60;64.00;;;;;;5022686;28;19928;-60
2021/08/10 08:58:42;;;;;;;;;;;21.50;64.00;;;;;;5040047;28;19951;-60
2021/08/10 09:01:10;;;;;;;;;;;21.50;64.10;;;;;;5039805;28;19921;-59
2021/08/10 09:03:36;;;;;;;;;;;21.50;64.10;;;;;;5040489;28;20006;-58
2021/08/10 09:06:01;;;;;;;;;;;21.60;64.20;;;;;;5040883;28;19916;-58
2021/08/10 09:08:39;;;;;;;;;;;21.60;64.10;;;;;;5040064;28;20321;-59
2021/08/10 09:11:06;;;;;;;;;;;21.50;64.00;;;;;;5040117;28;19966;-59
2021/08/10 09:13:32;;;;;;;;;;;21.50;64.00;;;;;;5021107;28;19916;-59
2021/08/10 09:15:58;;;;;;;;;;;21.60;64.00;;;;;;5040044;28;19936;-60
2021/08/10 09:18:23;;;;;;;;;;;21.50;63.90;;;;;;5039839;28;20527;-59
2021/08/10 09:20:58;;;;;;;;;;;21.50;63.90;;;;;;5040251;28;19944;-58
2021/08/10 09:23:36;;;;;;;;;;;21.50;63.90;;;;;;5039621;28;19925;-59
2021/08/10 09:26:02;;;;;;;;;;;21.50;63.70;;;;;;5038263;28;19974;-59
2021/08/10 09:28:31;;;;;;;;;;;21.50;62.80;;;;;;5039548;28;19921;-60
2021/08/10 09:30:56;;;;;;;;;;;21.50;62.90;;;;;;5038201;28;19917;-59
2021/08/10 09:33:21;;;;;;;;;;;21.50;62.20;;;;;;5040064;28;19917;-60
2021/08/10 09:35:47;;;;;;;;;;;21.50;62.50;;;;;;5040166;28;19954;-60
2021/08/10 09:38:15;;;;;;;;;;;21.50;62.50;;;;;;5039976;28;19916;-60
2021/08/10 09:40:44;;;;;;;;;;;21.50;62.80;;;;;;5040331;28;19921;-59
2021/08/10 09:43:20;;;;;;;;;;;21.50;61.80;;;;;;5039007;28;19924;-60
2021/08/10 09:45:45;;;;;;;;;;;21.50;62.70;;;;;;5036870;28;19923;-60
2021/08/10 09:48:14;;;;;;;;;;;21.50;63.00;;;;;;5037999;28;19921;-60
2021/08/10 09:50:39;;;;;;;;;;;21.50;63.00;;;;;;5038344;28;19925;-60
2021/08/10 09:53:14;;;;;;;;;;;21.50;63.10;;;;;;5037560;28;19921;-60
2021/08/10 09:55:50;;;;;;;;;;;21.50;63.10;;;;;;5038464;28;20316;-59
2021/08/10 09:58:16;;;;;;;;;;;21.50;63.10;;;;;;5036450;28;20398;-62
2021/08/10 10:00:42;;;;;;;;;;;21.50;63.00;;;;;;5036847;28;19917;-61
2021/08/10 10:03:21;;;;;;;;;;;21.50;63.10;;;;;;5037751;28;19921;-61
2021/08/10 10:05:47;;;;;;;;;;;21.50;62.60;;;;;;5036081;28;20002;-62
2021/08/10 10:08:19;;;;;;;;;;;21.50;62.50;;;;;;5035984;28;20429;-61
2021/08/10 10:10:45;;;;;;;;;;;21.50;62.70;;;;;;5040263;28;20071;-62
2021/08/10 10:13:11;;;;;;;;;;;21.40;61.90;;;;;;5038750;28;19913;-62
2021/08/10 10:15:36;;;;;;;;;;;21.40;61.80;;;;;;5040231;28;20060;-61
2021/08/10 10:18:02;;;;;;;;;;;21.50;61.70;;;;;;5037250;28;19932;-62
2021/08/10 10:20:27;;;;;;;;;;;21.50;61.30;;;;;;5038249;28;19921;-62
2021/08/10 10:22:53;;;;;;;;;;;21.50;61.60;;;;;;5038623;28;19917;-62
2021/08/10 10:25:18;;;;;;;;;;;21.50;61.70;;;;;;5037718;28;19921;-61
2021/08/10 10:27:44;;;;;;;;;;;21.50;61.50;;;;;;5037732;28;20765;-61
2021/08/10 10:30:09;;;;;;;;;;;21.40;61.20;;;;;;5037870;28;20054;-61
2021/08/10 10:32:35;;;;;;;;;;;21.50;62.10;;;;;;5038663;28;19917;-61
2021/08/10 10:35:00;;;;;;;;;;;21.50;61.40;;;;;;5038015;28;19931;-62
2021/08/10 10:37:26;;;;;;;;;;;21.40;61.70;;;;;;5039030;28;20270;-62
2021/08/10 10:39:59;;;;;;;;;;;21.40;62.00;;;;;;5037454;28;19925;-62
2021/08/10 10:42:24;;;;;;;;;;;21.40;61.80;;;;;;5038800;28;19916;-62
2021/08/10 10:44:51;;;;;;;;;;;21.40;62.00;;;;;;5037545;28;19916;-62
2021/08/10 10:47:19;;;;;;;;;;;21.40;61.10;;;;;;5038775;28;20385;-62
2021/08/10 10:49:45;;;;;;;;;;;21.40;61.10;;;;;;5038151;28;19928;-61
2021/08/10 10:52:10;;;;;;;;;;;21.40;60.80;;;;;;5039196;28;19917;-61
2021/08/10 10:54:42;;;;;;;;;;;21.40;61.50;;;;;;5038630;28;19957;-60
2021/08/10 10:57:08;;;;;;;;;;;21.40;61.60;;;;;;5034155;28;19928;-62
2021/08/10 10:59:33;;;;;;;;;;;21.40;61.60;;;;;;5037070;28;19921;-61
2021/08/10 11:02:11;;;;;;;;;;;21.40;61.90;;;;;;5038688;28;19975;-61
2021/08/10 11:04:36;;;;;;;;;;;21.40;62.20;;;;;;5038640;28;19916;-62
2021/08/10 11:07:22;;;;;;;;;;;21.40;62.40;;;;;;5038914;28;19999;-62
2021/08/10 11:09:50;;;;;;;;;;;21.40;62.00;;;;;;5035089;28;19925;-62
2021/08/10 11:12:31;;;;;;;;;;;21.40;62.50;;;;;;5037842;28;19989;-62
2021/08/10 11:14:57;;;;;;;;;;;21.40;62.60;;;;;;5037892;28;19924;-60
2021/08/10 11:17:22;;;;;;;;;;;21.40;62.40;;;;;;5039200;28;20286;-62
2021/08/10 11:19:48;;;;;;;;;;;21.40;61.80;;;;;;5039180;28;19920;-61
2021/08/10 11:22:17;;;;;;;;;;;21.40;62.10;;;;;;5038581;28;20423;-62
2021/08/10 11:24:43;;;;;;;;;;;21.40;62.20;;;;;;5038437;28;19917;-61
2021/08/10 11:27:28;;;;;;;;;;;21.40;62.30;;;;;;5034056;28;19917;-62
2021/08/10 11:29:53;;;;;;;;;;;21.40;62.70;;;;;;5038706;28;19917;-62
2021/08/10 11:32:34;;;;;;;;;;;21.40;62.80;;;;;;5039027;28;19920;-62
2021/08/10 11:35:19;;;;;;;;;;;21.40;63.00;;;;;;5038251;28;19917;-62
2021/08/10 11:37:46;;;;;;;;;;;21.40;62.70;;;;;;5034116;28;19971;-62
2021/08/10 11:40:12;;;;;;;;;;;21.40;63.10;;;;;;5036613;28;19921;-61
2021/08/10 11:42:38;;;;;;;;;;;21.40;63.10;;;;;;5038852;28;19924;-62
2021/08/10 11:45:04;;;;;;;;;;;21.40;63.10;;;;;;5037111;28;19920;-62
2021/08/10 11:47:29;;;;;;;;;;;21.40;63.30;;;;;;5035904;28;20012;-62
2021/08/10 11:49:55;;;;;;;;;;;21.40;63.50;;;;;;5037319;28;20373;-61
2021/08/10 11:52:20;;;;;;;;;;;21.40;63.70;;;;;;5038728;28;19916;-63
2021/08/10 11:54:58;;;;;;;;;;;21.40;63.10;;;;;;5036686;28;20137;-63
2021/08/10 11:57:24;;;;;;;;;;;21.40;63.50;;;;;;5029927;28;19927;-60
2021/08/10 11:59:51;;;;;;;;;;;21.40;63.20;;;;;;5036304;28;19917;-61
2021/08/10 12:02:16;;;;;;;;;;;21.40;63.60;;;;;;5037818;28;20344;-61
2021/08/10 12:04:42;;;;;;;;;;;21.40;63.80;;;;;;5038884;28;19917;-62
2021/08/10 12:07:07;;;;;;;;;;;21.40;63.90;;;;;;5036214;28;20039;-61
2021/08/10 12:09:39;;;;;;;;;;;21.40;63.50;;;;;;5037942;28;20281;-62
2021/08/10 12:12:06;;;;;;;;;;;21.40;63.90;;;;;;5037684;28;19917;-61
2021/08/10 12:14:32;;;;;;;;;;;21.40;63.90;;;;;;5037168;28;19996;-62
2021/08/10 12:16:58;;;;;;;;;;;21.40;64.00;;;;;;5038327;28;19927;-63
2021/08/10 12:19:28;;;;;;;;;;;21.40;64.00;;;;;;5040203;28;19931;-62
2021/08/10 12:21:53;;;;;;;;;;;21.40;64.00;;;;;;5040560;28;19919;-62
2021/08/10 12:24:25;;;;;;;;;;;21.50;64.00;;;;;;5040282;28;19917;-62
2021/08/10 12:26:51;;;;;;;;;;;21.50;64.00;;;;;;5041593;28;19920;-62
2021/08/10 12:29:16;;;;;;;;;;;21.40;64.10;;;;;;5041168;28;19921;-61
2021/08/10 12:31:43;;;;;;;;;;;21.40;64.20;;;;;;5041537;28;20452;-62
2021/08/10 12:34:09;;;;;;;;;;;21.40;64.10;;;;;;5041861;28;19916;-61
2021/08/10 12:36:34;;;;;;;;;;;21.40;64.10;;;;;;5041415;28;20428;-62
2021/08/10 12:39:00;;;;;;;;;;;21.40;64.10;;;;;;5022292;28;19952;-63
2021/08/10 12:41:26;;;;;;;;;;;21.40;64.10;;;;;;5069434;22;19928;-62
2021/08/10 12:43:51;;;;;;;;;;;21.40;64.00;;;;;;5056749;28;19913;-62
2021/08/10 12:46:30;;;;;;;;;;;21.50;64.00;;;;;;5058482;28;22829;-64
2021/08/10 12:49:04;;;;;;;;;;;21.50;64.10;;;;;;5040106;28;20300;-63
2021/08/10 12:51:49;;;;;;;;;;;21.50;64.00;;;;;;5055978;28;19916;-63
2021/08/10 12:54:14;;;;;;;;;;;21.50;64.00;;;;;;5058208;28;20306;-63
2021/08/10 12:56:40;;;;;;;;;;;21.50;63.90;;;;;;5058739;28;19981;-62
2021/08/10 12:59:05;;;;;;;;;;;21.50;63.90;;;;;;5056622;28;19938;-62
2021/08/10 13:01:43;;;;;;;;;;;21.50;63.90;;;;;;5058142;28;19916;-62
2021/08/10 13:04:09;;;;;;;;;;;21.50;63.90;;;;;;5058574;28;19942;-65
2021/08/10 13:06:37;;;;;;;;;;;21.40;63.90;;;;;;5058123;28;19913;-65
2021/08/10 13:09:06;;;;;;;;;;;21.40;63.90;;;;;;5057986;28;19921;-58
2021/08/10 13:11:32;;;;;;;;;;;21.50;63.90;;;;;;5057953;28;19924;-61
2021/08/10 13:14:10;;;;;;;;;;;21.50;63.80;;;;;;5057991;28;19954;-61
2021/08/10 13:16:36;;;;;;;;;;;21.50;62.90;;;;;;5056672;28;20409;-59
2021/08/10 13:19:11;;;;;;;;;;;21.50;63.10;;;;;;5054242;28;19916;-61
2021/08/10 13:21:43;;;;;;;;;;;21.50;63.30;;;;;;5057960;28;20289;-60
2021/08/10 13:24:09;;;;;;;;;;;21.50;63.50;;;;;;5058472;28;19970;-61
2021/08/10 13:26:44;;;;;;;;;;;21.50;63.80;;;;;;5039477;28;19921;-61
2021/08/10 13:29:09;;;;;;;;;;;21.50;63.80;;;;;;5056214;28;19930;-60
2021/08/10 13:31:50;;;;;;;;;;;21.50;63.90;;;;;;5057678;28;20336;-60
2021/08/10 13:34:16;;;;;;;;;;;21.50;64.00;;;;;;5057413;28;19917;-60
2021/08/10 13:36:42;;;;;;;;;;;21.50;64.00;;;;;;5056028;28;19942;-61
2021/08/10 13:39:07;;;;;;;;;;;21.50;64.00;;;;;;5056701;28;20425;-59
2021/08/10 13:41:33;;;;;;;;;;;21.50;63.90;;;;;;5057548;28;19924;-61
2021/08/10 13:43:59;;;;;;;;;;;21.50;63.90;;;;;;5054561;28;20404;-60
2021/08/10 13:46:30;;;;;;;;;;;21.50;63.90;;;;;;5057841;28;19952;-64
2021/08/10 13:48:56;;;;;;;;;;;21.50;64.00;;;;;;5057450;28;19964;-60
2021/08/10 13:51:22;;;;;;;;;;;21.50;64.00;;;;;;5057748;28;19990;-63
2021/08/10 13:53:47;;;;;;;;;;;21.50;64.00;;;;;;5058380;28;19927;-63
2021/08/10 13:56:13;;;;;;;;;;;21.50;63.80;;;;;;5057737;28;20018;-63
2021/08/10 13:58:38;;;;;;;;;;;21.50;63.50;;;;;;5057850;28;19917;-62
2021/08/10 14:01:04;;;;;;;;;;;21.50;63.30;;;;;;5057859;28;19916;-60
2021/08/10 14:03:31;;;;;;;;;;;21.50;63.00;;;;;;5058057;28;19917;-60
2021/08/10 14:05:57;;;;;;;;;;;21.50;63.20;;;;;;5058679;28;19916;-59
2021/08/10 14:08:22;;;;;;;;;;;21.50;63.20;;;;;;5052072;28;19912;-60
2021/08/10 14:10:48;;;;;;;;;;;21.50;63.40;;;;;;5058689;28;19916;-60
2021/08/10 14:13:13;;;;;;;;;;;21.50;63.60;;;;;;5054622;28;19923;-59
2021/08/10 14:15:39;;;;;;;;;;;21.50;63.80;;;;;;5056369;28;20454;-59